sensor_id;sensor_type;location;lat;lon;timestamp;P1;durP1;ratioP1;P2;durP2;ratioP2
19026;SDS011;9646;52.034;5.554;2023-03-01T00:00:54;6.95;;;4.80;;
19026;SDS011;9646;52.034;5.554;2023-03-01T00:03:26;7.40;;;5.03;;
19026;SDS011;9646;52.034;5.554;2023-03-01T00:05:55;7.78;;;5.50;;
19026;SDS011;9646;52.034;5.554;2023-03-01T00:08:22;9.30;;;5.45;;
19026;SDS011;9646;52.034;5.554;2023-03-01T00:10:49;6.80;;;4.82;;
19026;SDS011;9646;52.034;5.554;2023-03-01T00:13:16;8.02;;;5.30;;
19026;SDS011;9646;52.034;5.554;2023-03-01T00:15:43;7.32;;;4.93;;
19026;SDS011;9646;52.034;5.554;2023-03-01T00:18:10;7.85;;;5.25;;
19026;SDS011;9646;52.034;5.554;2023-03-01T00:20:37;7.13;;;4.95;;
19026;SDS011;9646;52.034;5.554;2023-03-01T00:23:06;7.90;;;5.22;;
19026;SDS011;9646;52.034;5.554;2023-03-01T00:25:33;6.68;;;4.82;;
19026;SDS011;9646;52.034;5.554;2023-03-01T00:28:00;8.25;;;5.40;;
19026;SDS011;9646;52.034;5.554;2023-03-01T00:30:27;7.63;;;4.63;;
19026;SDS011;9646;52.034;5.554;2023-03-01T00:32:54;8.77;;;5.00;;
19026;SDS011;9646;52.034;5.554;2023-03-01T00:35:21;7.80;;;4.55;;
19026;SDS011;9646;52.034;5.554;2023-03-01T00:37:48;7.68;;;4.88;;
19026;SDS011;9646;52.034;5.554;2023-03-01T00:40:23;8.27;;;4.85;;
19026;SDS011;9646;52.034;5.554;2023-03-01T00:42:50;7.20;;;4.68;;
19026;SDS011;9646;52.034;5.554;2023-03-01T00:45:18;6.72;;;4.32;;
19026;SDS011;9646;52.034;5.554;2023-03-01T00:47:45;7.57;;;5.28;;
19026;SDS011;9646;52.034;5.554;2023-03-01T00:50:12;8.02;;;5.15;;
19026;SDS011;9646;52.034;5.554;2023-03-01T00:52:39;9.48;;;4.70;;
19026;SDS011;9646;52.034;5.554;2023-03-01T00:55:06;11.23;;;5.47;;
19026;SDS011;9646;52.034;5.554;2023-03-01T00:57:35;7.63;;;4.88;;
19026;SDS011;9646;52.034;5.554;2023-03-01T01:00:02;7.20;;;4.70;;
19026;SDS011;9646;52.034;5.554;2023-03-01T01:02:31;8.00;;;5.80;;
19026;SDS011;9646;52.034;5.554;2023-03-01T01:04:59;6.65;;;4.60;;
19026;SDS011;9646;52.034;5.554;2023-03-01T01:07:26;6.82;;;4.75;;
19026;SDS011;9646;52.034;5.554;2023-03-01T01:09:53;9.73;;;4.68;;
19026;SDS011;9646;52.034;5.554;2023-03-01T01:12:21;7.22;;;4.60;;
19026;SDS011;9646;52.034;5.554;2023-03-01T01:14:49;7.18;;;4.85;;
19026;SDS011;9646;52.034;5.554;2023-03-01T01:17:16;6.43;;;4.50;;
19026;SDS011;9646;52.034;5.554;2023-03-01T01:19:43;8.38;;;4.85;;
19026;SDS011;9646;52.034;5.554;2023-03-01T01:22:10;7.68;;;4.88;;
19026;SDS011;9646;52.034;5.554;2023-03-01T01:24:37;6.32;;;4.82;;
19026;SDS011;9646;52.034;5.554;2023-03-01T01:27:05;6.90;;;4.63;;
19026;SDS011;9646;52.034;5.554;2023-03-01T01:29:32;9.48;;;5.22;;
19026;SDS011;9646;52.034;5.554;2023-03-01T01:32:00;8.50;;;4.90;;
19026;SDS011;9646;52.034;5.554;2023-03-01T01:34:27;7.53;;;4.93;;
19026;SDS011;9646;52.034;5.554;2023-03-01T01:36:54;7.97;;;5.72;;
19026;SDS011;9646;52.034;5.554;2023-03-01T01:39:22;9.38;;;5.40;;
19026;SDS011;9646;52.034;5.554;2023-03-01T01:41:49;6.32;;;4.80;;
19026;SDS011;9646;52.034;5.554;2023-03-01T01:44:17;6.28;;;4.60;;
19026;SDS011;9646;52.034;5.554;2023-03-01T01:46:46;9.90;;;5.90;;
19026;SDS011;9646;52.034;5.554;2023-03-01T01:49:23;7.50;;;5.25;;
19026;SDS011;9646;52.034;5.554;2023-03-01T01:51:51;8.73;;;5.07;;
19026;SDS011;9646;52.034;5.554;2023-03-01T01:54:22;8.93;;;6.05;;
19026;SDS011;9646;52.034;5.554;2023-03-01T01:56:51;6.55;;;4.90;;
19026;SDS011;9646;52.034;5.554;2023-03-01T01:59:19;6.95;;;5.50;;
19026;SDS011;9646;52.034;5.554;2023-03-01T02:01:49;7.75;;;5.47;;
19026;SDS011;9646;52.034;5.554;2023-03-01T02:04:16;8.13;;;6.00;;
19026;SDS011;9646;52.034;5.554;2023-03-01T02:06:46;7.88;;;5.55;;
19026;SDS011;9646;52.034;5.554;2023-03-01T02:09:15;7.13;;;5.28;;
19026;SDS011;9646;52.034;5.554;2023-03-01T02:11:43;6.72;;;5.30;;
19026;SDS011;9646;52.034;5.554;2023-03-01T02:14:11;9.20;;;5.43;;
19026;SDS011;9646;52.034;5.554;2023-03-01T02:16:38;7.80;;;5.25;;
19026;SDS011;9646;52.034;5.554;2023-03-01T02:19:06;9.13;;;5.43;;
19026;SDS011;9646;52.034;5.554;2023-03-01T02:21:38;6.80;;;5.22;;
19026;SDS011;9646;52.034;5.554;2023-03-01T02:24:13;7.25;;;5.45;;
19026;SDS011;9646;52.034;5.554;2023-03-01T02:26:45;9.60;;;5.85;;
19026;SDS011;9646;52.034;5.554;2023-03-01T02:29:14;10.30;;;5.78;;
19026;SDS011;9646;52.034;5.554;2023-03-01T02:31:41;7.13;;;5.22;;
19026;SDS011;9646;52.034;5.554;2023-03-01T02:34:08;8.57;;;6.53;;
19026;SDS011;9646;52.034;5.554;2023-03-01T02:36:36;7.75;;;5.20;;
19026;SDS011;9646;52.034;5.554;2023-03-01T02:39:04;7.28;;;5.07;;
19026;SDS011;9646;52.034;5.554;2023-03-01T02:41:33;7.07;;;5.30;;
19026;SDS011;9646;52.034;5.554;2023-03-01T02:44:01;6.70;;;5.07;;
19026;SDS011;9646;52.034;5.554;2023-03-01T02:46:30;7.18;;;5.40;;
19026;SDS011;9646;52.034;5.554;2023-03-01T02:48:57;5.82;;;4.78;;
19026;SDS011;9646;52.034;5.554;2023-03-01T02:51:27;7.00;;;4.95;;
19026;SDS011;9646;52.034;5.554;2023-03-01T02:54:01;7.00;;;5.35;;
19026;SDS011;9646;52.034;5.554;2023-03-01T02:56:32;9.48;;;4.95;;
19026;SDS011;9646;52.034;5.554;2023-03-01T02:59:00;6.50;;;4.95;;
19026;SDS011;9646;52.034;5.554;2023-03-01T03:01:27;6.15;;;5.13;;
19026;SDS011;9646;52.034;5.554;2023-03-01T03:04:03;7.13;;;5.30;;
19026;SDS011;9646;52.034;5.554;2023-03-01T03:06:30;6.60;;;4.88;;
19026;SDS011;9646;52.034;5.554;2023-03-01T03:08:57;7.43;;;5.55;;
19026;SDS011;9646;52.034;5.554;2023-03-01T03:11:24;6.63;;;4.90;;
19026;SDS011;9646;52.034;5.554;2023-03-01T03:13:51;7.20;;;5.43;;
19026;SDS011;9646;52.034;5.554;2023-03-01T03:16:18;8.25;;;5.22;;
19026;SDS011;9646;52.034;5.554;2023-03-01T03:18:46;8.57;;;5.65;;
19026;SDS011;9646;52.034;5.554;2023-03-01T03:21:15;5.68;;;4.90;;
19026;SDS011;9646;52.034;5.554;2023-03-01T03:23:42;7.60;;;5.40;;
19026;SDS011;9646;52.034;5.554;2023-03-01T03:26:09;7.15;;;5.30;;
19026;SDS011;9646;52.034;5.554;2023-03-01T03:28:38;7.38;;;5.10;;
19026;SDS011;9646;52.034;5.554;2023-03-01T03:31:06;7.68;;;5.13;;
19026;SDS011;9646;52.034;5.554;2023-03-01T03:33:33;6.82;;;4.95;;
19026;SDS011;9646;52.034;5.554;2023-03-01T03:36:00;7.47;;;4.63;;
19026;SDS011;9646;52.034;5.554;2023-03-01T03:38:29;7.45;;;4.80;;
19026;SDS011;9646;52.034;5.554;2023-03-01T03:41:00;6.72;;;4.93;;
19026;SDS011;9646;52.034;5.554;2023-03-01T03:43:28;7.07;;;5.25;;
19026;SDS011;9646;52.034;5.554;2023-03-01T03:45:55;7.88;;;5.18;;
19026;SDS011;9646;52.034;5.554;2023-03-01T03:48:23;6.95;;;5.20;;
19026;SDS011;9646;52.034;5.554;2023-03-01T03:50:51;7.47;;;4.85;;
19026;SDS011;9646;52.034;5.554;2023-03-01T03:53:19;7.25;;;4.25;;
19026;SDS011;9646;52.034;5.554;2023-03-01T03:55:48;6.10;;;4.85;;
19026;SDS011;9646;52.034;5.554;2023-03-01T03:58:16;6.15;;;4.30;;
19026;SDS011;9646;52.034;5.554;2023-03-01T04:00:45;7.40;;;5.25;;
19026;SDS011;9646;52.034;5.554;2023-03-01T04:03:13;6.82;;;5.07;;
19026;SDS011;9646;52.034;5.554;2023-03-01T04:05:41;5.72;;;4.50;;
19026;SDS011;9646;52.034;5.554;2023-03-01T04:08:08;8.27;;;4.75;;
19026;SDS011;9646;52.034;5.554;2023-03-01T04:10:36;6.35;;;4.55;;
19026;SDS011;9646;52.034;5.554;2023-03-01T04:13:06;6.35;;;4.82;;
19026;SDS011;9646;52.034;5.554;2023-03-01T04:15:34;6.35;;;4.93;;
19026;SDS011;9646;52.034;5.554;2023-03-01T04:18:01;8.07;;;5.47;;
19026;SDS011;9646;52.034;5.554;2023-03-01T04:20:29;6.88;;;5.07;;
19026;SDS011;9646;52.034;5.554;2023-03-01T04:22:58;7.07;;;5.55;;
19026;SDS011;9646;52.034;5.554;2023-03-01T04:25:33;9.10;;;4.97;;
19026;SDS011;9646;52.034;5.554;2023-03-01T04:28:00;7.18;;;4.85;;
19026;SDS011;9646;52.034;5.554;2023-03-01T04:30:29;6.32;;;5.15;;
19026;SDS011;9646;52.034;5.554;2023-03-01T04:33:00;6.13;;;5.07;;
19026;SDS011;9646;52.034;5.554;2023-03-01T04:35:27;9.18;;;5.28;;
19026;SDS011;9646;52.034;5.554;2023-03-01T04:37:54;5.38;;;4.38;;
19026;SDS011;9646;52.034;5.554;2023-03-01T04:40:21;5.80;;;4.82;;
19026;SDS011;9646;52.034;5.554;2023-03-01T04:42:48;5.63;;;4.65;;
19026;SDS011;9646;52.034;5.554;2023-03-01T04:45:15;6.10;;;4.93;;
19026;SDS011;9646;52.034;5.554;2023-03-01T04:47:45;6.53;;;4.68;;
19026;SDS011;9646;52.034;5.554;2023-03-01T04:50:13;6.40;;;4.85;;
19026;SDS011;9646;52.034;5.554;2023-03-01T04:52:41;6.93;;;5.30;;
19026;SDS011;9646;52.034;5.554;2023-03-01T04:55:08;6.90;;;5.07;;
19026;SDS011;9646;52.034;5.554;2023-03-01T04:57:36;6.25;;;4.70;;
19026;SDS011;9646;52.034;5.554;2023-03-01T05:00:03;6.30;;;4.97;;
19026;SDS011;9646;52.034;5.554;2023-03-01T05:02:46;6.13;;;4.88;;
19026;SDS011;9646;52.034;5.554;2023-03-01T05:05:18;6.75;;;5.05;;
19026;SDS011;9646;52.034;5.554;2023-03-01T05:07:45;8.02;;;5.38;;
19026;SDS011;9646;52.034;5.554;2023-03-01T05:10:12;5.53;;;5.03;;
19026;SDS011;9646;52.034;5.554;2023-03-01T05:12:39;4.85;;;4.10;;
19026;SDS011;9646;52.034;5.554;2023-03-01T05:15:06;6.60;;;5.03;;
19026;SDS011;9646;52.034;5.554;2023-03-01T05:17:34;6.38;;;5.07;;
19026;SDS011;9646;52.034;5.554;2023-03-01T05:20:02;8.60;;;4.82;;
19026;SDS011;9646;52.034;5.554;2023-03-01T05:22:32;5.63;;;4.85;;
19026;SDS011;9646;52.034;5.554;2023-03-01T05:24:59;5.72;;;5.15;;
19026;SDS011;9646;52.034;5.554;2023-03-01T05:27:26;9.02;;;4.88;;
19026;SDS011;9646;52.034;5.554;2023-03-01T05:29:54;6.25;;;5.07;;
19026;SDS011;9646;52.034;5.554;2023-03-01T05:32:21;6.32;;;4.90;;
19026;SDS011;9646;52.034;5.554;2023-03-01T05:34:48;6.50;;;5.18;;
19026;SDS011;9646;52.034;5.554;2023-03-01T05:37:18;6.55;;;5.38;;
19026;SDS011;9646;52.034;5.554;2023-03-01T05:39:45;5.53;;;4.95;;
19026;SDS011;9646;52.034;5.554;2023-03-01T05:42:15;6.82;;;5.13;;
19026;SDS011;9646;52.034;5.554;2023-03-01T05:44:42;5.85;;;4.57;;
19026;SDS011;9646;52.034;5.554;2023-03-01T05:47:10;6.93;;;4.53;;
19026;SDS011;9646;52.034;5.554;2023-03-01T05:49:37;8.27;;;4.53;;
19026;SDS011;9646;52.034;5.554;2023-03-01T05:52:04;6.97;;;5.30;;
19026;SDS011;9646;52.034;5.554;2023-03-01T05:54:32;7.63;;;5.25;;
19026;SDS011;9646;52.034;5.554;2023-03-01T05:56:59;6.70;;;5.10;;
19026;SDS011;9646;52.034;5.554;2023-03-01T05:59:26;7.43;;;5.18;;
19026;SDS011;9646;52.034;5.554;2023-03-01T06:01:53;7.53;;;5.28;;
19026;SDS011;9646;52.034;5.554;2023-03-01T06:04:20;7.50;;;5.45;;
19026;SDS011;9646;52.034;5.554;2023-03-01T06:06:48;5.63;;;5.03;;
19026;SDS011;9646;52.034;5.554;2023-03-01T06:09:15;6.22;;;4.95;;
19026;SDS011;9646;52.034;5.554;2023-03-01T06:11:43;7.63;;;5.40;;
19026;SDS011;9646;52.034;5.554;2023-03-01T06:14:10;6.90;;;5.18;;
19026;SDS011;9646;52.034;5.554;2023-03-01T06:16:39;7.45;;;4.90;;
19026;SDS011;9646;52.034;5.554;2023-03-01T06:19:06;6.10;;;5.03;;
19026;SDS011;9646;52.034;5.554;2023-03-01T06:21:33;5.75;;;4.88;;
19026;SDS011;9646;52.034;5.554;2023-03-01T06:24:00;7.70;;;4.55;;
19026;SDS011;9646;52.034;5.554;2023-03-01T06:26:27;6.50;;;5.18;;
19026;SDS011;9646;52.034;5.554;2023-03-01T06:28:56;7.50;;;4.93;;
19026;SDS011;9646;52.034;5.554;2023-03-01T06:31:23;8.07;;;4.95;;
19026;SDS011;9646;52.034;5.554;2023-03-01T06:33:50;5.43;;;4.85;;
19026;SDS011;9646;52.034;5.554;2023-03-01T06:36:17;6.82;;;5.22;;
19026;SDS011;9646;52.034;5.554;2023-03-01T06:38:46;5.18;;;4.68;;
19026;SDS011;9646;52.034;5.554;2023-03-01T06:41:13;8.90;;;5.43;;
19026;SDS011;9646;52.034;5.554;2023-03-01T06:43:40;8.75;;;5.47;;
19026;SDS011;9646;52.034;5.554;2023-03-01T06:46:08;7.18;;;5.30;;
19026;SDS011;9646;52.034;5.554;2023-03-01T06:48:35;7.93;;;5.15;;
19026;SDS011;9646;52.034;5.554;2023-03-01T06:51:03;9.57;;;6.85;;
19026;SDS011;9646;52.034;5.554;2023-03-01T06:53:30;10.32;;;6.55;;
19026;SDS011;9646;52.034;5.554;2023-03-01T06:55:57;10.57;;;6.45;;
19026;SDS011;9646;52.034;5.554;2023-03-01T06:58:25;8.18;;;5.75;;
19026;SDS011;9646;52.034;5.554;2023-03-01T07:00:52;6.47;;;5.35;;
19026;SDS011;9646;52.034;5.554;2023-03-01T07:03:20;10.48;;;6.00;;
19026;SDS011;9646;52.034;5.554;2023-03-01T07:05:48;9.25;;;5.40;;
19026;SDS011;9646;52.034;5.554;2023-03-01T07:08:16;9.10;;;5.38;;
19026;SDS011;9646;52.034;5.554;2023-03-01T07:10:44;7.35;;;5.47;;
19026;SDS011;9646;52.034;5.554;2023-03-01T07:13:11;5.82;;;4.97;;
19026;SDS011;9646;52.034;5.554;2023-03-01T07:15:39;6.43;;;4.88;;
19026;SDS011;9646;52.034;5.554;2023-03-01T07:18:07;7.63;;;5.70;;
19026;SDS011;9646;52.034;5.554;2023-03-01T07:20:35;8.10;;;5.50;;
19026;SDS011;9646;52.034;5.554;2023-03-01T07:23:02;10.00;;;5.97;;
19026;SDS011;9646;52.034;5.554;2023-03-01T07:25:29;7.20;;;5.15;;
19026;SDS011;9646;52.034;5.554;2023-03-01T07:27:57;8.35;;;5.80;;
19026;SDS011;9646;52.034;5.554;2023-03-01T07:30:24;8.18;;;5.70;;
19026;SDS011;9646;52.034;5.554;2023-03-01T07:32:53;7.05;;;6.22;;
19026;SDS011;9646;52.034;5.554;2023-03-01T07:35:20;9.05;;;6.38;;
19026;SDS011;9646;52.034;5.554;2023-03-01T07:37:49;8.38;;;6.00;;
19026;SDS011;9646;52.034;5.554;2023-03-01T07:40:16;9.75;;;5.90;;
19026;SDS011;9646;52.034;5.554;2023-03-01T07:42:43;8.00;;;5.53;;
19026;SDS011;9646;52.034;5.554;2023-03-01T07:45:10;9.07;;;5.78;;
19026;SDS011;9646;52.034;5.554;2023-03-01T07:47:38;10.35;;;5.82;;
19026;SDS011;9646;52.034;5.554;2023-03-01T07:50:05;7.80;;;6.00;;
19026;SDS011;9646;52.034;5.554;2023-03-01T07:52:33;8.55;;;6.00;;
19026;SDS011;9646;52.034;5.554;2023-03-01T07:55:01;8.10;;;6.45;;
19026;SDS011;9646;52.034;5.554;2023-03-01T07:57:28;8.50;;;5.85;;
19026;SDS011;9646;52.034;5.554;2023-03-01T07:59:56;9.65;;;6.97;;
19026;SDS011;9646;52.034;5.554;2023-03-01T08:02:23;12.55;;;6.47;;
19026;SDS011;9646;52.034;5.554;2023-03-01T08:04:50;10.68;;;6.38;;
19026;SDS011;9646;52.034;5.554;2023-03-01T08:07:17;8.52;;;6.10;;
19026;SDS011;9646;52.034;5.554;2023-03-01T08:09:44;8.25;;;6.00;;
19026;SDS011;9646;52.034;5.554;2023-03-01T08:12:13;8.02;;;5.15;;
19026;SDS011;9646;52.034;5.554;2023-03-01T08:14:41;7.85;;;5.40;;
19026;SDS011;9646;52.034;5.554;2023-03-01T08:17:08;8.27;;;5.78;;
19026;SDS011;9646;52.034;5.554;2023-03-01T08:19:35;8.20;;;5.15;;
19026;SDS011;9646;52.034;5.554;2023-03-01T08:22:03;8.23;;;5.70;;
19026;SDS011;9646;52.034;5.554;2023-03-01T08:24:30;8.00;;;5.45;;
19026;SDS011;9646;52.034;5.554;2023-03-01T08:26:57;7.55;;;5.65;;
19026;SDS011;9646;52.034;5.554;2023-03-01T08:29:25;7.95;;;5.28;;
19026;SDS011;9646;52.034;5.554;2023-03-01T08:31:53;8.02;;;5.78;;
19026;SDS011;9646;52.034;5.554;2023-03-01T08:34:20;6.57;;;4.95;;
19026;SDS011;9646;52.034;5.554;2023-03-01T08:36:47;6.05;;;5.07;;
19026;SDS011;9646;52.034;5.554;2023-03-01T08:39:15;7.47;;;4.95;;
19026;SDS011;9646;52.034;5.554;2023-03-01T08:41:43;8.18;;;4.68;;
19026;SDS011;9646;52.034;5.554;2023-03-01T08:44:11;7.50;;;4.75;;
19026;SDS011;9646;52.034;5.554;2023-03-01T08:46:40;7.03;;;5.47;;
19026;SDS011;9646;52.034;5.554;2023-03-01T08:49:08;7.97;;;5.05;;
19026;SDS011;9646;52.034;5.554;2023-03-01T08:51:35;6.72;;;4.60;;
19026;SDS011;9646;52.034;5.554;2023-03-01T08:54:02;6.70;;;4.68;;
19026;SDS011;9646;52.034;5.554;2023-03-01T08:56:30;7.10;;;4.43;;
19026;SDS011;9646;52.034;5.554;2023-03-01T08:58:57;6.72;;;4.07;;
19026;SDS011;9646;52.034;5.554;2023-03-01T09:01:24;5.30;;;3.72;;
19026;SDS011;9646;52.034;5.554;2023-03-01T09:03:52;7.10;;;3.75;;
19026;SDS011;9646;52.034;5.554;2023-03-01T09:06:19;4.82;;;3.63;;
19026;SDS011;9646;52.034;5.554;2023-03-01T09:08:47;6.65;;;4.07;;
19026;SDS011;9646;52.034;5.554;2023-03-01T09:11:15;5.60;;;4.22;;
19026;SDS011;9646;52.034;5.554;2023-03-01T09:13:43;6.85;;;4.57;;
19026;SDS011;9646;52.034;5.554;2023-03-01T09:16:11;5.40;;;3.72;;
19026;SDS011;9646;52.034;5.554;2023-03-01T09:18:38;5.65;;;3.55;;
19026;SDS011;9646;52.034;5.554;2023-03-01T09:21:07;5.22;;;3.60;;
19026;SDS011;9646;52.034;5.554;2023-03-01T09:23:35;4.57;;;3.65;;
19026;SDS011;9646;52.034;5.554;2023-03-01T09:26:04;9.82;;;3.92;;
19026;SDS011;9646;52.034;5.554;2023-03-01T09:28:31;4.53;;;3.55;;
19026;SDS011;9646;52.034;5.554;2023-03-01T09:30:58;5.28;;;3.40;;
19026;SDS011;9646;52.034;5.554;2023-03-01T09:33:26;4.07;;;3.13;;
19026;SDS011;9646;52.034;5.554;2023-03-01T09:35:55;4.15;;;3.05;;
19026;SDS011;9646;52.034;5.554;2023-03-01T09:38:24;7.18;;;3.42;;
19026;SDS011;9646;52.034;5.554;2023-03-01T09:40:51;4.38;;;2.85;;
19026;SDS011;9646;52.034;5.554;2023-03-01T09:43:20;3.80;;;2.72;;
19026;SDS011;9646;52.034;5.554;2023-03-01T09:45:48;4.03;;;2.67;;
19026;SDS011;9646;52.034;5.554;2023-03-01T09:48:19;4.97;;;3.20;;
19026;SDS011;9646;52.034;5.554;2023-03-01T09:50:48;3.60;;;2.40;;
19026;SDS011;9646;52.034;5.554;2023-03-01T09:53:16;5.32;;;2.72;;
19026;SDS011;9646;52.034;5.554;2023-03-01T09:55:45;4.57;;;2.85;;
19026;SDS011;9646;52.034;5.554;2023-03-01T09:58:22;3.80;;;2.63;;
19026;SDS011;9646;52.034;5.554;2023-03-01T10:00:52;3.45;;;2.33;;
19026;SDS011;9646;52.034;5.554;2023-03-01T10:03:21;3.30;;;2.60;;
19026;SDS011;9646;52.034;5.554;2023-03-01T10:05:57;3.20;;;2.33;;
19026;SDS011;9646;52.034;5.554;2023-03-01T10:08:27;4.72;;;2.97;;
19026;SDS011;9646;52.034;5.554;2023-03-01T10:10:57;2.80;;;2.22;;
19026;SDS011;9646;52.034;5.554;2023-03-01T10:13:26;3.08;;;2.22;;
19026;SDS011;9646;52.034;5.554;2023-03-01T10:15:55;3.63;;;2.17;;
19026;SDS011;9646;52.034;5.554;2023-03-01T10:18:24;3.63;;;2.50;;
19026;SDS011;9646;52.034;5.554;2023-03-01T10:20:52;3.03;;;2.20;;
19026;SDS011;9646;52.034;5.554;2023-03-01T10:23:20;3.13;;;2.40;;
19026;SDS011;9646;52.034;5.554;2023-03-01T10:25:49;2.97;;;2.30;;
19026;SDS011;9646;52.034;5.554;2023-03-01T10:28:20;2.15;;;1.70;;
19026;SDS011;9646;52.034;5.554;2023-03-01T10:30:51;3.40;;;2.03;;
19026;SDS011;9646;52.034;5.554;2023-03-01T10:33:20;2.85;;;2.13;;
19026;SDS011;9646;52.034;5.554;2023-03-01T10:35:49;3.22;;;2.00;;
19026;SDS011;9646;52.034;5.554;2023-03-01T10:38:16;4.00;;;2.40;;
19026;SDS011;9646;52.034;5.554;2023-03-01T10:40:53;2.55;;;2.00;;
19026;SDS011;9646;52.034;5.554;2023-03-01T10:43:23;4.95;;;2.35;;
19026;SDS011;9646;52.034;5.554;2023-03-01T10:45:50;4.20;;;2.78;;
19026;SDS011;9646;52.034;5.554;2023-03-01T10:48:18;3.70;;;2.13;;
19026;SDS011;9646;52.034;5.554;2023-03-01T10:50:49;4.47;;;2.70;;
19026;SDS011;9646;52.034;5.554;2023-03-01T10:53:21;5.15;;;2.50;;
19026;SDS011;9646;52.034;5.554;2023-03-01T10:55:56;5.55;;;2.20;;
19026;SDS011;9646;52.034;5.554;2023-03-01T10:58:24;6.07;;;2.47;;
19026;SDS011;9646;52.034;5.554;2023-03-01T11:00:52;4.55;;;2.35;;
19026;SDS011;9646;52.034;5.554;2023-03-01T11:03:21;5.60;;;2.92;;
19026;SDS011;9646;52.034;5.554;2023-03-01T11:05:56;8.20;;;3.85;;
19026;SDS011;9646;52.034;5.554;2023-03-01T11:08:31;28.42;;;7.40;;
19026;SDS011;9646;52.034;5.554;2023-03-01T11:11:06;28.27;;;6.55;;
19026;SDS011;9646;52.034;5.554;2023-03-01T11:13:34;24.80;;;6.70;;
19026;SDS011;9646;52.034;5.554;2023-03-01T11:16:02;21.60;;;6.30;;
19026;SDS011;9646;52.034;5.554;2023-03-01T11:18:30;16.02;;;5.15;;
19026;SDS011;9646;52.034;5.554;2023-03-01T11:20:58;13.73;;;5.43;;
19026;SDS011;9646;52.034;5.554;2023-03-01T11:23:26;17.15;;;6.13;;
19026;SDS011;9646;52.034;5.554;2023-03-01T11:25:55;18.65;;;6.30;;
19026;SDS011;9646;52.034;5.554;2023-03-01T11:28:22;13.77;;;4.85;;
19026;SDS011;9646;52.034;5.554;2023-03-01T11:30:53;14.05;;;5.28;;
19026;SDS011;9646;52.034;5.554;2023-03-01T11:33:24;13.05;;;5.22;;
19026;SDS011;9646;52.034;5.554;2023-03-01T11:36:00;13.27;;;4.95;;
19026;SDS011;9646;52.034;5.554;2023-03-01T11:38:28;12.07;;;4.50;;
19026;SDS011;9646;52.034;5.554;2023-03-01T11:41:00;18.30;;;4.65;;
19026;SDS011;9646;52.034;5.554;2023-03-01T11:43:31;9.48;;;3.75;;
19026;SDS011;9646;52.034;5.554;2023-03-01T11:48:49;13.35;;;4.53;;
19026;SDS011;9646;52.034;5.554;2023-03-01T11:51:20;8.95;;;3.90;;
19026;SDS011;9646;52.034;5.554;2023-03-01T11:53:51;9.85;;;4.00;;
19026;SDS011;9646;52.034;5.554;2023-03-01T11:56:25;8.43;;;3.40;;
19026;SDS011;9646;52.034;5.554;2023-03-01T11:59:03;8.82;;;3.28;;
19026;SDS011;9646;52.034;5.554;2023-03-01T12:01:32;9.13;;;3.92;;
19026;SDS011;9646;52.034;5.554;2023-03-01T12:04:19;9.65;;;4.10;;
19026;SDS011;9646;52.034;5.554;2023-03-01T12:06:52;8.52;;;4.10;;
19026;SDS011;9646;52.034;5.554;2023-03-01T12:09:23;8.18;;;3.50;;
19026;SDS011;9646;52.034;5.554;2023-03-01T12:11:59;8.77;;;3.45;;
19026;SDS011;9646;52.034;5.554;2023-03-01T12:14:31;7.30;;;3.38;;
19026;SDS011;9646;52.034;5.554;2023-03-01T12:17:05;7.07;;;3.35;;
19026;SDS011;9646;52.034;5.554;2023-03-01T12:19:41;6.18;;;3.63;;
19026;SDS011;9646;52.034;5.554;2023-03-01T12:22:17;8.10;;;3.30;;
19026;SDS011;9646;52.034;5.554;2023-03-01T12:24:51;5.80;;;3.72;;
19026;SDS011;9646;52.034;5.554;2023-03-01T12:27:29;6.20;;;3.50;;
19026;SDS011;9646;52.034;5.554;2023-03-01T12:30:01;3.83;;;2.70;;
19026;SDS011;9646;52.034;5.554;2023-03-01T12:32:35;5.32;;;3.00;;
19026;SDS011;9646;52.034;5.554;2023-03-01T12:35:22;4.60;;;2.88;;
19026;SDS011;9646;52.034;5.554;2023-03-01T12:37:54;5.20;;;2.60;;
19026;SDS011;9646;52.034;5.554;2023-03-01T12:40:31;5.95;;;3.55;;
19026;SDS011;9646;52.034;5.554;2023-03-01T12:43:06;6.85;;;3.50;;
19026;SDS011;9646;52.034;5.554;2023-03-01T12:45:39;5.28;;;3.00;;
19026;SDS011;9646;52.034;5.554;2023-03-01T12:48:10;5.57;;;3.20;;
19026;SDS011;9646;52.034;5.554;2023-03-01T12:50:41;4.82;;;2.65;;
19026;SDS011;9646;52.034;5.554;2023-03-01T12:53:14;5.00;;;3.00;;
19026;SDS011;9646;52.034;5.554;2023-03-01T12:55:45;5.03;;;2.72;;
19026;SDS011;9646;52.034;5.554;2023-03-01T12:58:15;4.60;;;2.90;;
19026;SDS011;9646;52.034;5.554;2023-03-01T13:00:52;4.50;;;3.00;;
19026;SDS011;9646;52.034;5.554;2023-03-01T13:03:25;7.05;;;3.20;;
19026;SDS011;9646;52.034;5.554;2023-03-01T13:06:02;4.28;;;2.63;;
19026;SDS011;9646;52.034;5.554;2023-03-01T13:08:36;6.10;;;3.78;;
19026;SDS011;9646;52.034;5.554;2023-03-01T13:11:04;3.88;;;2.60;;
19026;SDS011;9646;52.034;5.554;2023-03-01T13:13:32;4.13;;;2.63;;
19026;SDS011;9646;52.034;5.554;2023-03-01T13:16:19;5.63;;;4.25;;
19026;SDS011;9646;52.034;5.554;2023-03-01T13:18:47;4.28;;;2.65;;
19026;SDS011;9646;52.034;5.554;2023-03-01T13:21:15;4.38;;;2.65;;
19026;SDS011;9646;52.034;5.554;2023-03-01T13:23:55;4.72;;;3.08;;
19026;SDS011;9646;52.034;5.554;2023-03-01T13:26:22;6.05;;;2.60;;
19026;SDS011;9646;52.034;5.554;2023-03-01T13:28:50;4.18;;;2.50;;
19026;SDS011;9646;52.034;5.554;2023-03-01T13:34:06;3.47;;;2.30;;
19026;SDS011;9646;52.034;5.554;2023-03-01T13:36:54;3.58;;;2.83;;
19026;SDS011;9646;52.034;5.554;2023-03-01T13:39:38;5.63;;;3.15;;
19026;SDS011;9646;52.034;5.554;2023-03-01T13:44:48;4.18;;;3.05;;
19026;SDS011;9646;52.034;5.554;2023-03-01T13:47:16;3.15;;;2.35;;
19026;SDS011;9646;52.034;5.554;2023-03-01T13:49:46;3.47;;;2.30;;
19026;SDS011;9646;52.034;5.554;2023-03-01T13:52:26;4.30;;;2.90;;
19026;SDS011;9646;52.034;5.554;2023-03-01T13:54:56;4.63;;;2.55;;
19026;SDS011;9646;52.034;5.554;2023-03-01T13:57:25;2.13;;;1.73;;
19026;SDS011;9646;52.034;5.554;2023-03-01T13:59:53;3.83;;;2.28;;
19026;SDS011;9646;52.034;5.554;2023-03-01T14:02:20;2.92;;;1.90;;
19026;SDS011;9646;52.034;5.554;2023-03-01T14:04:55;4.53;;;1.88;;
19026;SDS011;9646;52.034;5.554;2023-03-01T14:07:24;2.60;;;2.00;;
19026;SDS011;9646;52.034;5.554;2023-03-01T14:09:54;5.68;;;2.33;;
19026;SDS011;9646;52.034;5.554;2023-03-01T14:12:25;5.53;;;2.42;;
19026;SDS011;9646;52.034;5.554;2023-03-01T14:14:54;4.32;;;1.98;;
19026;SDS011;9646;52.034;5.554;2023-03-01T14:17:30;2.67;;;1.90;;
19026;SDS011;9646;52.034;5.554;2023-03-01T14:20:00;4.68;;;2.22;;
19026;SDS011;9646;52.034;5.554;2023-03-01T14:22:31;2.42;;;2.00;;
19026;SDS011;9646;52.034;5.554;2023-03-01T14:25:00;2.70;;;2.20;;
19026;SDS011;9646;52.034;5.554;2023-03-01T14:27:30;4.78;;;2.47;;
19026;SDS011;9646;52.034;5.554;2023-03-01T14:29:58;3.42;;;2.30;;
19026;SDS011;9646;52.034;5.554;2023-03-01T14:32:26;3.92;;;2.38;;
19026;SDS011;9646;52.034;5.554;2023-03-01T14:34:54;3.95;;;2.13;;
19026;SDS011;9646;52.034;5.554;2023-03-01T14:37:22;3.80;;;1.80;;
19026;SDS011;9646;52.034;5.554;2023-03-01T14:39:52;2.45;;;1.42;;
19026;SDS011;9646;52.034;5.554;2023-03-01T14:42:20;2.05;;;1.65;;
19026;SDS011;9646;52.034;5.554;2023-03-01T14:44:48;3.67;;;2.05;;
19026;SDS011;9646;52.034;5.554;2023-03-01T14:47:19;3.75;;;2.00;;
19026;SDS011;9646;52.034;5.554;2023-03-01T14:49:47;3.65;;;1.85;;
19026;SDS011;9646;52.034;5.554;2023-03-01T14:52:18;2.03;;;1.60;;
19026;SDS011;9646;52.034;5.554;2023-03-01T14:54:47;2.20;;;1.60;;
19026;SDS011;9646;52.034;5.554;2023-03-01T14:57:16;3.67;;;1.92;;
19026;SDS011;9646;52.034;5.554;2023-03-01T14:59:44;4.30;;;2.00;;
19026;SDS011;9646;52.034;5.554;2023-03-01T15:02:13;2.45;;;1.30;;
19026;SDS011;9646;52.034;5.554;2023-03-01T15:04:42;2.67;;;1.73;;
19026;SDS011;9646;52.034;5.554;2023-03-01T15:07:09;3.38;;;1.80;;
19026;SDS011;9646;52.034;5.554;2023-03-01T15:09:38;3.35;;;2.03;;
19026;SDS011;9646;52.034;5.554;2023-03-01T15:12:33;3.40;;;1.70;;
19026;SDS011;9646;52.034;5.554;2023-03-01T15:15:01;3.00;;;1.80;;
19026;SDS011;9646;52.034;5.554;2023-03-01T15:17:48;2.60;;;1.67;;
19026;SDS011;9646;52.034;5.554;2023-03-01T15:20:18;2.80;;;1.80;;